sensor_id;sensor_type;location;lat;lon;timestamp;P1;durP1;ratioP1;P2;durP2;ratioP2
9838;SDS011;4958;48.150;11.506;2023-04-08T00:01:47;8.00;;;7.30;;
9838;SDS011;4958;48.150;11.506;2023-04-08T00:04:14;7.83;;;7.13;;
9838;SDS011;4958;48.150;11.506;2023-04-08T00:06:42;7.57;;;6.70;;
9838;SDS011;4958;48.150;11.506;2023-04-08T00:09:11;7.43;;;6.73;;
9838;SDS011;4958;48.150;11.506;2023-04-08T00:11:43;7.47;;;6.77;;
9838;SDS011;4958;48.150;11.506;2023-04-08T00:14:13;7.57;;;6.80;;
9838;SDS011;4958;48.150;11.506;2023-04-08T00:16:41;7.60;;;6.80;;
9838;SDS011;4958;48.150;11.506;2023-04-08T00:19:14;7.80;;;7.03;;
9838;SDS011;4958;48.150;11.506;2023-04-08T00:21:45;7.63;;;6.73;;
9838;SDS011;4958;48.150;11.506;2023-04-08T00:24:14;6.93;;;6.23;;
9838;SDS011;4958;48.150;11.506;2023-04-08T00:26:43;6.97;;;5.90;;
9838;SDS011;4958;48.150;11.506;2023-04-08T00:29:17;7.67;;;6.90;;
9838;SDS011;4958;48.150;11.506;2023-04-08T00:31:46;7.23;;;6.27;;
9838;SDS011;4958;48.150;11.506;2023-04-08T00:34:12;7.23;;;6.30;;
9838;SDS011;4958;48.150;11.506;2023-04-08T00:36:39;6.60;;;6.00;;
9838;SDS011;4958;48.150;11.506;2023-04-08T00:39:07;6.63;;;6.00;;
9838;SDS011;4958;48.150;11.506;2023-04-08T00:41:35;6.60;;;6.00;;
9838;SDS011;4958;48.150;11.506;2023-04-08T00:44:10;7.07;;;6.03;;
9838;SDS011;4958;48.150;11.506;2023-04-08T00:46:39;6.17;;;5.57;;
9838;SDS011;4958;48.150;11.506;2023-04-08T00:49:09;7.93;;;5.60;;
9838;SDS011;4958;48.150;11.506;2023-04-08T00:51:54;6.63;;;5.70;;
9838;SDS011;4958;48.150;11.506;2023-04-08T00:54:22;6.87;;;5.70;;
9838;SDS011;4958;48.150;11.506;2023-04-08T00:56:51;6.13;;;5.53;;
9838;SDS011;4958;48.150;11.506;2023-04-08T00:59:23;6.50;;;5.70;;
9838;SDS011;4958;48.150;11.506;2023-04-08T01:01:54;5.77;;;5.20;;
9838;SDS011;4958;48.150;11.506;2023-04-08T01:04:32;7.77;;;5.60;;
9838;SDS011;4958;48.150;11.506;2023-04-08T01:07:11;6.00;;;5.40;;
9838;SDS011;4958;48.150;11.506;2023-04-08T01:09:50;6.33;;;5.70;;
9838;SDS011;4958;48.150;11.506;2023-04-08T01:12:26;6.23;;;5.23;;
9838;SDS011;4958;48.150;11.506;2023-04-08T01:14:56;5.27;;;4.77;;
9838;SDS011;4958;48.150;11.506;2023-04-08T01:20:46;6.77;;;5.13;;
9838;SDS011;4958;48.150;11.506;2023-04-08T01:23:19;5.57;;;5.00;;
9838;SDS011;4958;48.150;11.506;2023-04-08T01:25:52;5.30;;;4.80;;
9838;SDS011;4958;48.150;11.506;2023-04-08T01:28:19;5.40;;;4.87;;
9838;SDS011;4958;48.150;11.506;2023-04-08T01:30:47;5.93;;;5.33;;
9838;SDS011;4958;48.150;11.506;2023-04-08T01:33:17;6.47;;;5.70;;
9838;SDS011;4958;48.150;11.506;2023-04-08T01:35:46;6.13;;;5.13;;
9838;SDS011;4958;48.150;11.506;2023-04-08T01:38:19;5.50;;;5.00;;
9838;SDS011;4958;48.150;11.506;2023-04-08T01:40:50;6.00;;;5.40;;
9838;SDS011;4958;48.150;11.506;2023-04-08T01:43:26;6.37;;;5.63;;
9838;SDS011;4958;48.150;11.506;2023-04-08T01:46:01;5.70;;;5.20;;
9838;SDS011;4958;48.150;11.506;2023-04-08T01:48:28;6.37;;;5.60;;
9838;SDS011;4958;48.150;11.506;2023-04-08T01:50:57;6.03;;;5.37;;
9838;SDS011;4958;48.150;11.506;2023-04-08T01:53:29;5.43;;;4.77;;
9838;SDS011;4958;48.150;11.506;2023-04-08T01:56:08;5.30;;;4.80;;
9838;SDS011;4958;48.150;11.506;2023-04-08T01:58:38;6.23;;;5.37;;
9838;SDS011;4958;48.150;11.506;2023-04-08T02:01:09;5.63;;;5.00;;
9838;SDS011;4958;48.150;11.506;2023-04-08T02:03:43;6.40;;;5.40;;
9838;SDS011;4958;48.150;11.506;2023-04-08T02:06:11;6.43;;;5.17;;
9838;SDS011;4958;48.150;11.506;2023-04-08T02:08:42;5.97;;;5.13;;
9838;SDS011;4958;48.150;11.506;2023-04-08T02:11:10;5.67;;;5.03;;
9838;SDS011;4958;48.150;11.506;2023-04-08T02:13:39;6.77;;;5.20;;
9838;SDS011;4958;48.150;11.506;2023-04-08T02:16:08;6.07;;;5.47;;
9838;SDS011;4958;48.150;11.506;2023-04-08T02:18:49;6.53;;;5.27;;
9838;SDS011;4958;48.150;11.506;2023-04-08T02:21:26;5.87;;;5.27;;
9838;SDS011;4958;48.150;11.506;2023-04-08T02:23:59;5.63;;;5.13;;
9838;SDS011;4958;48.150;11.506;2023-04-08T02:26:31;5.73;;;5.07;;
9838;SDS011;4958;48.150;11.506;2023-04-08T02:29:04;6.00;;;5.40;;
9838;SDS011;4958;48.150;11.506;2023-04-08T02:31:37;7.27;;;5.40;;
9838;SDS011;4958;48.150;11.506;2023-04-08T02:34:06;5.90;;;5.23;;
9838;SDS011;4958;48.150;11.506;2023-04-08T02:36:48;6.33;;;5.37;;
9838;SDS011;4958;48.150;11.506;2023-04-08T02:39:15;5.90;;;5.40;;
9838;SDS011;4958;48.150;11.506;2023-04-08T02:41:43;5.90;;;5.40;;
9838;SDS011;4958;48.150;11.506;2023-04-08T02:44:10;6.60;;;5.37;;
9838;SDS011;4958;48.150;11.506;2023-04-08T02:46:37;6.13;;;5.53;;
9838;SDS011;4958;48.150;11.506;2023-04-08T02:49:06;6.20;;;5.40;;
9838;SDS011;4958;48.150;11.506;2023-04-08T02:51:32;5.67;;;5.17;;
9838;SDS011;4958;48.150;11.506;2023-04-08T02:53:59;6.60;;;6.00;;
9838;SDS011;4958;48.150;11.506;2023-04-08T02:56:27;5.93;;;5.37;;
9838;SDS011;4958;48.150;11.506;2023-04-08T02:58:55;6.43;;;5.83;;
9838;SDS011;4958;48.150;11.506;2023-04-08T03:01:22;6.47;;;5.87;;
9838;SDS011;4958;48.150;11.506;2023-04-08T03:03:51;6.60;;;6.00;;
9838;SDS011;4958;48.150;11.506;2023-04-08T03:06:21;6.43;;;5.80;;
9838;SDS011;4958;48.150;11.506;2023-04-08T03:08:50;7.10;;;6.40;;
9838;SDS011;4958;48.150;11.506;2023-04-08T03:11:17;6.90;;;6.00;;
9838;SDS011;4958;48.150;11.506;2023-04-08T03:13:43;6.83;;;6.23;;
9838;SDS011;4958;48.150;11.506;2023-04-08T03:16:12;6.53;;;5.87;;
9838;SDS011;4958;48.150;11.506;2023-04-08T03:18:38;6.10;;;5.53;;
9838;SDS011;4958;48.150;11.506;2023-04-08T03:21:05;6.30;;;5.67;;
9838;SDS011;4958;48.150;11.506;2023-04-08T03:23:42;6.93;;;6.23;;
9838;SDS011;4958;48.150;11.506;2023-04-08T03:26:08;7.47;;;6.67;;
9838;SDS011;4958;48.150;11.506;2023-04-08T03:28:37;6.67;;;5.97;;
9838;SDS011;4958;48.150;11.506;2023-04-08T03:31:03;6.70;;;6.10;;
9838;SDS011;4958;48.150;11.506;2023-04-08T03:33:31;7.17;;;6.03;;
9838;SDS011;4958;48.150;11.506;2023-04-08T03:36:00;7.40;;;6.57;;
9838;SDS011;4958;48.150;11.506;2023-04-08T03:38:29;8.07;;;6.80;;
9838;SDS011;4958;48.150;11.506;2023-04-08T03:40:59;7.47;;;6.47;;
9838;SDS011;4958;48.150;11.506;2023-04-08T03:43:25;8.43;;;6.47;;
9838;SDS011;4958;48.150;11.506;2023-04-08T03:45:59;7.50;;;6.60;;
9838;SDS011;4958;48.150;11.506;2023-04-08T03:48:27;7.13;;;6.43;;
9838;SDS011;4958;48.150;11.506;2023-04-08T03:50:58;7.73;;;6.93;;
9838;SDS011;4958;48.150;11.506;2023-04-08T03:53:27;7.67;;;6.60;;
9838;SDS011;4958;48.150;11.506;2023-04-08T03:55:56;8.10;;;7.30;;
9838;SDS011;4958;48.150;11.506;2023-04-08T03:58:29;7.50;;;6.80;;
9838;SDS011;4958;48.150;11.506;2023-04-08T04:00:55;7.93;;;7.13;;
9838;SDS011;4958;48.150;11.506;2023-04-08T04:03:22;9.73;;;7.40;;
9838;SDS011;4958;48.150;11.506;2023-04-08T04:06:05;8.43;;;7.10;;
9838;SDS011;4958;48.150;11.506;2023-04-08T04:08:39;8.07;;;7.27;;
9838;SDS011;4958;48.150;11.506;2023-04-08T04:11:06;8.03;;;7.23;;
9838;SDS011;4958;48.150;11.506;2023-04-08T04:13:36;7.67;;;6.97;;
9838;SDS011;4958;48.150;11.506;2023-04-08T04:16:07;8.47;;;7.63;;
9838;SDS011;4958;48.150;11.506;2023-04-08T04:18:36;8.57;;;7.67;;
9838;SDS011;4958;48.150;11.506;2023-04-08T04:21:07;8.50;;;7.30;;
9838;SDS011;4958;48.150;11.506;2023-04-08T04:23:38;8.67;;;7.33;;
9838;SDS011;4958;48.150;11.506;2023-04-08T04:26:07;8.73;;;7.83;;
9838;SDS011;4958;48.150;11.506;2023-04-08T04:28:35;9.20;;;8.03;;
9838;SDS011;4958;48.150;11.506;2023-04-08T04:31:02;9.37;;;8.33;;
9838;SDS011;4958;48.150;11.506;2023-04-08T04:33:31;9.20;;;8.30;;
9838;SDS011;4958;48.150;11.506;2023-04-08T04:35:58;9.20;;;8.30;;
9838;SDS011;4958;48.150;11.506;2023-04-08T04:38:32;8.90;;;8.00;;
9838;SDS011;4958;48.150;11.506;2023-04-08T04:40:58;9.23;;;8.30;;
9838;SDS011;4958;48.150;11.506;2023-04-08T04:43:33;10.13;;;8.90;;
9838;SDS011;4958;48.150;11.506;2023-04-08T04:46:08;10.20;;;9.20;;
9838;SDS011;4958;48.150;11.506;2023-04-08T04:48:35;8.50;;;7.70;;
9838;SDS011;4958;48.150;11.506;2023-04-08T04:51:05;10.93;;;8.83;;
9838;SDS011;4958;48.150;11.506;2023-04-08T04:53:49;9.60;;;8.70;;
9838;SDS011;4958;48.150;11.506;2023-04-08T04:56:19;9.63;;;8.63;;
9838;SDS011;4958;48.150;11.506;2023-04-08T04:58:46;10.47;;;9.37;;
9838;SDS011;4958;48.150;11.506;2023-04-08T05:01:15;9.97;;;8.97;;
9838;SDS011;4958;48.150;11.506;2023-04-08T05:03:42;10.53;;;9.53;;
9838;SDS011;4958;48.150;11.506;2023-04-08T05:06:08;12.43;;;9.70;;
9838;SDS011;4958;48.150;11.506;2023-04-08T05:08:51;11.77;;;9.20;;
9838;SDS011;4958;48.150;11.506;2023-04-08T05:11:20;10.60;;;9.60;;
9838;SDS011;4958;48.150;11.506;2023-04-08T05:13:52;11.63;;;10.43;;
9838;SDS011;4958;48.150;11.506;2023-04-08T05:16:20;11.67;;;10.47;;
9838;SDS011;4958;48.150;11.506;2023-04-08T05:18:54;11.17;;;10.07;;
9838;SDS011;4958;48.150;11.506;2023-04-08T05:21:23;10.90;;;9.80;;
9838;SDS011;4958;48.150;11.506;2023-04-08T05:23:53;11.23;;;10.13;;
9838;SDS011;4958;48.150;11.506;2023-04-08T05:26:22;11.90;;;10.23;;
9838;SDS011;4958;48.150;11.506;2023-04-08T05:28:49;11.50;;;10.27;;
9838;SDS011;4958;48.150;11.506;2023-04-08T05:31:16;11.50;;;10.40;;
9838;SDS011;4958;48.150;11.506;2023-04-08T05:33:45;11.63;;;10.40;;
9838;SDS011;4958;48.150;11.506;2023-04-08T05:36:13;12.50;;;10.43;;
9838;SDS011;4958;48.150;11.506;2023-04-08T05:38:42;12.23;;;10.90;;
9838;SDS011;4958;48.150;11.506;2023-04-08T05:41:12;11.60;;;10.40;;
9838;SDS011;4958;48.150;11.506;2023-04-08T05:43:39;12.27;;;10.97;;
9838;SDS011;4958;48.150;11.506;2023-04-08T05:46:08;12.60;;;10.43;;
9838;SDS011;4958;48.150;11.506;2023-04-08T05:48:38;12.90;;;10.10;;
9838;SDS011;4958;48.150;11.506;2023-04-08T05:51:11;12.57;;;10.97;;
9838;SDS011;4958;48.150;11.506;2023-04-08T05:53:38;12.17;;;10.93;;
9838;SDS011;4958;48.150;11.506;2023-04-08T05:56:07;11.60;;;10.50;;
9838;SDS011;4958;48.150;11.506;2023-04-08T05:58:37;12.53;;;11.20;;
9838;SDS011;4958;48.150;11.506;2023-04-08T06:01:04;11.97;;;10.80;;
9838;SDS011;4958;48.150;11.506;2023-04-08T06:03:33;13.40;;;11.23;;
9838;SDS011;4958;48.150;11.506;2023-04-08T06:05:59;11.97;;;10.77;;
9838;SDS011;4958;48.150;11.506;2023-04-08T06:08:28;11.43;;;10.33;;
9838;SDS011;4958;48.150;11.506;2023-04-08T06:10:55;12.10;;;10.90;;
9838;SDS011;4958;48.150;11.506;2023-04-08T06:13:21;12.27;;;11.07;;
9838;SDS011;4958;48.150;11.506;2023-04-08T06:15:51;10.97;;;9.87;;
9838;SDS011;4958;48.150;11.506;2023-04-08T06:18:23;12.10;;;10.80;;
9838;SDS011;4958;48.150;11.506;2023-04-08T06:20:50;11.70;;;10.53;;
9838;SDS011;4958;48.150;11.506;2023-04-08T06:23:16;12.27;;;11.07;;
9838;SDS011;4958;48.150;11.506;2023-04-08T06:25:44;12.40;;;11.10;;
9838;SDS011;4958;48.150;11.506;2023-04-08T06:28:10;12.50;;;11.20;;
9838;SDS011;4958;48.150;11.506;2023-04-08T06:30:37;11.83;;;10.73;;
9838;SDS011;4958;48.150;11.506;2023-04-08T06:33:07;12.33;;;10.97;;
9838;SDS011;4958;48.150;11.506;2023-04-08T06:35:34;11.63;;;10.43;;
9838;SDS011;4958;48.150;11.506;2023-04-08T06:38:01;11.60;;;10.47;;
9838;SDS011;4958;48.150;11.506;2023-04-08T06:40:29;12.47;;;10.47;;
9838;SDS011;4958;48.150;11.506;2023-04-08T06:42:58;11.47;;;10.37;;
9838;SDS011;4958;48.150;11.506;2023-04-08T06:45:25;11.37;;;10.27;;
9838;SDS011;4958;48.150;11.506;2023-04-08T06:47:52;11.90;;;10.73;;
9838;SDS011;4958;48.150;11.506;2023-04-08T06:50:21;13.83;;;11.47;;
9838;SDS011;4958;48.150;11.506;2023-04-08T06:52:56;13.30;;;11.07;;
9838;SDS011;4958;48.150;11.506;2023-04-08T06:55:24;12.73;;;11.43;;
9838;SDS011;4958;48.150;11.506;2023-04-08T06:57:53;12.20;;;10.83;;
9838;SDS011;4958;48.150;11.506;2023-04-08T07:00:19;13.57;;;11.40;;
9838;SDS011;4958;48.150;11.506;2023-04-08T07:02:46;11.73;;;10.53;;
9838;SDS011;4958;48.150;11.506;2023-04-08T07:05:14;12.83;;;11.33;;
9838;SDS011;4958;48.150;11.506;2023-04-08T07:07:45;13.40;;;12.03;;
9838;SDS011;4958;48.150;11.506;2023-04-08T07:10:15;13.07;;;11.67;;
9838;SDS011;4958;48.150;11.506;2023-04-08T07:12:44;13.27;;;12.00;;
9838;SDS011;4958;48.150;11.506;2023-04-08T07:15:13;13.33;;;12.00;;
9838;SDS011;4958;48.150;11.506;2023-04-08T07:17:43;13.43;;;12.13;;
9838;SDS011;4958;48.150;11.506;2023-04-08T07:20:11;12.27;;;11.07;;
9838;SDS011;4958;48.150;11.506;2023-04-08T07:22:39;13.30;;;12.00;;
9838;SDS011;4958;48.150;11.506;2023-04-08T07:25:09;13.57;;;12.20;;
9838;SDS011;4958;48.150;11.506;2023-04-08T07:27:37;13.23;;;11.93;;
9838;SDS011;4958;48.150;11.506;2023-04-08T07:30:04;13.57;;;12.23;;
9838;SDS011;4958;48.150;11.506;2023-04-08T07:32:44;12.70;;;11.50;;
9838;SDS011;4958;48.150;11.506;2023-04-08T07:35:12;14.17;;;12.77;;
9838;SDS011;4958;48.150;11.506;2023-04-08T07:37:38;13.37;;;12.07;;
9838;SDS011;4958;48.150;11.506;2023-04-08T07:40:05;12.87;;;11.57;;
9838;SDS011;4958;48.150;11.506;2023-04-08T07:42:34;13.60;;;12.20;;
9838;SDS011;4958;48.150;11.506;2023-04-08T07:45:00;12.53;;;11.17;;
9838;SDS011;4958;48.150;11.506;2023-04-08T07:47:27;12.77;;;11.47;;
9838;SDS011;4958;48.150;11.506;2023-04-08T07:49:53;12.20;;;11.00;;
9838;SDS011;4958;48.150;11.506;2023-04-08T07:52:20;12.23;;;10.93;;
9838;SDS011;4958;48.150;11.506;2023-04-08T07:54:46;12.00;;;10.70;;
9838;SDS011;4958;48.150;11.506;2023-04-08T07:57:13;11.10;;;9.93;;
9838;SDS011;4958;48.150;11.506;2023-04-08T07:59:41;10.67;;;9.60;;
9838;SDS011;4958;48.150;11.506;2023-04-08T08:02:07;10.93;;;9.37;;
9838;SDS011;4958;48.150;11.506;2023-04-08T08:04:37;10.13;;;9.10;;
9838;SDS011;4958;48.150;11.506;2023-04-08T08:07:03;9.43;;;8.53;;
9838;SDS011;4958;48.150;11.506;2023-04-08T08:09:29;10.00;;;9.07;;
9838;SDS011;4958;48.150;11.506;2023-04-08T08:11:56;10.13;;;9.13;;
9838;SDS011;4958;48.150;11.506;2023-04-08T08:14:22;9.47;;;8.57;;
9838;SDS011;4958;48.150;11.506;2023-04-08T08:16:52;10.77;;;9.60;;
9838;SDS011;4958;48.150;11.506;2023-04-08T08:19:18;10.50;;;9.50;;
9838;SDS011;4958;48.150;11.506;2023-04-08T08:21:45;10.40;;;9.40;;
9838;SDS011;4958;48.150;11.506;2023-04-08T08:24:11;10.83;;;9.83;;
9838;SDS011;4958;48.150;11.506;2023-04-08T08:26:38;11.13;;;9.80;;
9838;SDS011;4958;48.150;11.506;2023-04-08T08:29:04;10.70;;;9.60;;
9838;SDS011;4958;48.150;11.506;2023-04-08T08:31:32;10.73;;;9.53;;
9838;SDS011;4958;48.150;11.506;2023-04-08T08:34:00;10.13;;;9.13;;
9838;SDS011;4958;48.150;11.506;2023-04-08T08:36:26;10.77;;;9.73;;
9838;SDS011;4958;48.150;11.506;2023-04-08T08:38:53;10.17;;;9.17;;
9838;SDS011;4958;48.150;11.506;2023-04-08T08:41:19;47.87;;;39.07;;
9838;SDS011;4958;48.150;11.506;2023-04-08T08:43:46;25.43;;;21.33;;
9838;SDS011;4958;48.150;11.506;2023-04-08T08:46:14;10.80;;;9.70;;
9838;SDS011;4958;48.150;11.506;2023-04-08T08:48:42;10.37;;;9.37;;
9838;SDS011;4958;48.150;11.506;2023-04-08T08:51:10;10.33;;;9.37;;
9838;SDS011;4958;48.150;11.506;2023-04-08T08:53:37;11.10;;;9.27;;
9838;SDS011;4958;48.150;11.506;2023-04-08T08:56:09;10.67;;;9.60;;
9838;SDS011;4958;48.150;11.506;2023-04-08T08:58:36;11.90;;;10.50;;
9838;SDS011;4958;48.150;11.506;2023-04-08T09:04:09;13.43;;;12.07;;
9838;SDS011;4958;48.150;11.506;2023-04-08T09:06:39;10.97;;;9.93;;
9838;SDS011;4958;48.150;11.506;2023-04-08T09:09:06;11.00;;;9.90;;
9838;SDS011;4958;48.150;11.506;2023-04-08T09:11:35;10.60;;;9.23;;
9838;SDS011;4958;48.150;11.506;2023-04-08T09:14:02;10.37;;;9.37;;
9838;SDS011;4958;48.150;11.506;2023-04-08T09:16:30;15.10;;;9.87;;
9838;SDS011;4958;48.150;11.506;2023-04-08T09:19:06;11.20;;;10.00;;
9838;SDS011;4958;48.150;11.506;2023-04-08T09:21:34;11.13;;;9.77;;
9838;SDS011;4958;48.150;11.506;2023-04-08T09:24:01;10.93;;;9.83;;
9838;SDS011;4958;48.150;11.506;2023-04-08T09:26:28;11.37;;;10.27;;
9838;SDS011;4958;48.150;11.506;2023-04-08T09:28:58;14.20;;;12.60;;
9838;SDS011;4958;48.150;11.506;2023-04-08T09:31:30;14.93;;;12.13;;
9838;SDS011;4958;48.150;11.506;2023-04-08T09:33:57;14.27;;;10.70;;
9838;SDS011;4958;48.150;11.506;2023-04-08T09:36:26;13.80;;;12.00;;
9838;SDS011;4958;48.150;11.506;2023-04-08T09:38:53;12.43;;;10.37;;
9838;SDS011;4958;48.150;11.506;2023-04-08T09:41:24;11.03;;;10.03;;
9838;SDS011;4958;48.150;11.506;2023-04-08T09:43:56;11.33;;;10.00;;
9838;SDS011;4958;48.150;11.506;2023-04-08T09:46:26;9.90;;;8.90;;
9838;SDS011;4958;48.150;11.506;2023-04-08T09:49:00;10.17;;;9.17;;
9838;SDS011;4958;48.150;11.506;2023-04-08T09:51:31;10.70;;;9.70;;
9838;SDS011;4958;48.150;11.506;2023-04-08T09:54:05;10.10;;;9.07;;
9838;SDS011;4958;48.150;11.506;2023-04-08T09:56:42;10.40;;;9.37;;
9838;SDS011;4958;48.150;11.506;2023-04-08T09:59:18;10.03;;;9.03;;
9838;SDS011;4958;48.150;11.506;2023-04-08T10:01:52;10.67;;;9.13;;
9838;SDS011;4958;48.150;11.506;2023-04-08T10:04:21;37.97;;;30.07;;
9838;SDS011;4958;48.150;11.506;2023-04-08T10:06:51;23.13;;;18.67;;
9838;SDS011;4958;48.150;11.506;2023-04-08T10:09:22;11.93;;;10.73;;
9838;SDS011;4958;48.150;11.506;2023-04-08T10:11:50;11.60;;;10.50;;
9838;SDS011;4958;48.150;11.506;2023-04-08T10:14:17;11.43;;;10.17;;
9838;SDS011;4958;48.150;11.506;2023-04-08T10:16:46;10.50;;;9.50;;
9838;SDS011;4958;48.150;11.506;2023-04-08T10:25:30;11.60;;;10.50;;
9838;SDS011;4958;48.150;11.506;2023-04-08T10:28:22;13.07;;;11.30;;
9838;SDS011;4958;48.150;11.506;2023-04-08T10:30:51;11.47;;;10.43;;
9838;SDS011;4958;48.150;11.506;2023-04-08T10:33:22;12.03;;;10.93;;
9838;SDS011;4958;48.150;11.506;2023-04-08T10:35:52;12.60;;;11.40;;
9838;SDS011;4958;48.150;11.506;2023-04-08T10:38:22;12.47;;;10.80;;
9838;SDS011;4958;48.150;11.506;2023-04-08T10:40:52;12.67;;;10.90;;
9838;SDS011;4958;48.150;11.506;2023-04-08T10:43:21;15.33;;;11.40;;
9838;SDS011;4958;48.150;11.506;2023-04-08T10:45:52;13.30;;;11.80;;
9838;SDS011;4958;48.150;11.506;2023-04-08T10:48:23;14.70;;;13.20;;
9838;SDS011;4958;48.150;11.506;2023-04-08T10:50:53;16.60;;;14.60;;
9838;SDS011;4958;48.150;11.506;2023-04-08T10:53:28;14.97;;;12.93;;
9838;SDS011;4958;48.150;11.506;2023-04-08T10:56:02;13.33;;;11.93;;
9838;SDS011;4958;48.150;11.506;2023-04-08T10:58:31;12.30;;;11.10;;
9838;SDS011;4958;48.150;11.506;2023-04-08T11:01:01;12.93;;;11.70;;
9838;SDS011;4958;48.150;11.506;2023-04-08T11:03:30;13.30;;;11.83;;
9838;SDS011;4958;48.150;11.506;2023-04-08T11:05:58;12.93;;;11.63;;
9838;SDS011;4958;48.150;11.506;2023-04-08T11:08:26;13.37;;;11.90;;
9838;SDS011;4958;48.150;11.506;2023-04-08T11:10:53;12.77;;;11.53;;
9838;SDS011;4958;48.150;11.506;2023-04-08T11:13:20;12.40;;;11.23;;
9838;SDS011;4958;48.150;11.506;2023-04-08T11:15:48;13.10;;;11.80;;
9838;SDS011;4958;48.150;11.506;2023-04-08T11:18:15;12.90;;;11.50;;
9838;SDS011;4958;48.150;11.506;2023-04-08T11:20:42;12.50;;;11.30;;
9838;SDS011;4958;48.150;11.506;2023-04-08T11:23:11;13.67;;;12.37;;
9838;SDS011;4958;48.150;11.506;2023-04-08T11:25:38;11.93;;;10.73;;
9838;SDS011;4958;48.150;11.506;2023-04-08T11:28:05;13.40;;;12.07;;
9838;SDS011;4958;48.150;11.506;2023-04-08T11:30:32;14.03;;;12.63;;
9838;SDS011;4958;48.150;11.506;2023-04-08T11:33:00;37.40;;;31.00;;
9838;SDS011;4958;48.150;11.506;2023-04-08T11:35:27;17.77;;;15.97;;
9838;SDS011;4958;48.150;11.506;2023-04-08T11:37:54;14.10;;;12.80;;
9838;SDS011;4958;48.150;11.506;2023-04-08T11:40:21;12.80;;;11.30;;
9838;SDS011;4958;48.150;11.506;2023-04-08T11:42:48;11.63;;;10.63;;
9838;SDS011;4958;48.150;11.506;2023-04-08T11:45:16;12.00;;;10.60;;
9838;SDS011;4958;48.150;11.506;2023-04-08T11:47:45;12.67;;;11.47;;
9838;SDS011;4958;48.150;11.506;2023-04-08T11:50:17;13.80;;;12.43;;
9838;SDS011;4958;48.150;11.506;2023-04-08T11:52:49;12.30;;;11.13;;
9838;SDS011;4958;48.150;11.506;2023-04-08T11:55:21;12.97;;;11.67;;
9838;SDS011;4958;48.150;11.506;2023-04-08T11:57:51;12.90;;;11.60;;
9838;SDS011;4958;48.150;11.506;2023-04-08T12:00:19;12.30;;;11.10;;
9838;SDS011;4958;48.150;11.506;2023-04-08T12:02:46;12.57;;;11.10;;
9838;SDS011;4958;48.150;11.506;2023-04-08T12:05:14;13.17;;;11.87;;
9838;SDS011;4958;48.150;11.506;2023-04-08T12:07:41;12.57;;;11.37;;
9838;SDS011;4958;48.150;11.506;2023-04-08T12:10:08;12.53;;;11.33;;
9838;SDS011;4958;48.150;11.506;2023-04-08T12:12:35;13.57;;;12.10;;
9838;SDS011;4958;48.150;11.506;2023-04-08T12:15:04;13.00;;;11.73;;
9838;SDS011;4958;48.150;11.506;2023-04-08T12:17:32;24.70;;;21.73;;
9838;SDS011;4958;48.150;11.506;2023-04-08T12:19:58;22.07;;;19.73;;
9838;SDS011;4958;48.150;11.506;2023-04-08T12:22:26;17.57;;;15.67;;
9838;SDS011;4958;48.150;11.506;2023-04-08T12:24:52;12.57;;;11.27;;
9838;SDS011;4958;48.150;11.506;2023-04-08T12:27:19;12.83;;;10.97;;
9838;SDS011;4958;48.150;11.506;2023-04-08T12:29:46;11.80;;;10.63;;
9838;SDS011;4958;48.150;11.506;2023-04-08T12:32:13;11.73;;;10.60;;
9838;SDS011;4958;48.150;11.506;2023-04-08T12:34:40;10.90;;;9.87;;
9838;SDS011;4958;48.150;11.506;2023-04-08T12:37:06;11.43;;;10.23;;
9838;SDS011;4958;48.150;11.506;2023-04-08T12:39:35;10.57;;;9.50;;
9838;SDS011;4958;48.150;11.506;2023-04-08T12:42:02;9.87;;;8.97;;
9838;SDS011;4958;48.150;11.506;2023-04-08T12:44:29;9.83;;;8.87;;
9838;SDS011;4958;48.150;11.506;2023-04-08T12:46:55;11.27;;;10.13;;
9838;SDS011;4958;48.150;11.506;2023-04-08T12:49:25;10.13;;;9.20;;
9838;SDS011;4958;48.150;11.506;2023-04-08T12:51:52;10.10;;;9.10;;
9838;SDS011;4958;48.150;11.506;2023-04-08T12:54:21;10.13;;;9.13;;
9838;SDS011;4958;48.150;11.506;2023-04-08T12:56:49;9.80;;;8.87;;
9838;SDS011;4958;48.150;11.506;2023-04-08T12:59:19;10.17;;;9.20;;
9838;SDS011;4958;48.150;11.506;2023-04-08T13:01:46;10.03;;;9.00;;
9838;SDS011;4958;48.150;11.506;2023-04-08T13:04:12;10.33;;;9.33;;
9838;SDS011;4958;48.150;11.506;2023-04-08T13:06:41;9.67;;;8.67;;
9838;SDS011;4958;48.150;11.506;2023-04-08T13:09:07;10.00;;;9.00;;
9838;SDS011;4958;48.150;11.506;2023-04-08T13:11:34;9.80;;;8.90;;
9838;SDS011;4958;48.150;11.506;2023-04-08T13:14:01;10.83;;;9.73;;
9838;SDS011;4958;48.150;11.506;2023-04-08T13:16:28;10.27;;;9.03;;
9838;SDS011;4958;48.150;11.506;2023-04-08T13:18:54;11.17;;;10.07;;
9838;SDS011;4958;48.150;11.506;2023-04-08T13:21:21;9.70;;;8.73;;
9838;SDS011;4958;48.150;11.506;2023-04-08T13:23:48;10.67;;;9.57;;
9838;SDS011;4958;48.150;11.506;2023-04-08T13:26:17;13.10;;;11.10;;
9838;SDS011;4958;48.150;11.506;2023-04-08T13:28:45;10.43;;;9.33;;
9838;SDS011;4958;48.150;11.506;2023-04-08T13:31:17;9.80;;;8.83;;
9838;SDS011;4958;48.150;11.506;2023-04-08T13:33:46;10.13;;;9.13;;
9838;SDS011;4958;48.150;11.506;2023-04-08T13:36:16;9.57;;;8.57;;
9838;SDS011;4958;48.150;11.506;2023-04-08T13:38:45;10.03;;;9.03;;
9838;SDS011;4958;48.150;11.506;2023-04-08T13:41:12;10.10;;;9.10;;
9838;SDS011;4958;48.150;11.506;2023-04-08T13:43:38;11.07;;;9.93;;
9838;SDS011;4958;48.150;11.506;2023-04-08T13:46:06;10.90;;;9.27;;
9838;SDS011;4958;48.150;11.506;2023-04-08T13:48:34;9.90;;;8.90;;
9838;SDS011;4958;48.150;11.506;2023-04-08T13:51:00;10.50;;;9.40;;
9838;SDS011;4958;48.150;11.506;2023-04-08T13:53:27;9.47;;;8.47;;
9838;SDS011;4958;48.150;11.506;2023-04-08T13:55:56;9.00;;;8.13;;
9838;SDS011;4958;48.150;11.506;2023-04-08T13:58:25;8.90;;;8.10;;
9838;SDS011;4958;48.150;11.506;2023-04-08T14:00:52;8.97;;;8.17;;
9838;SDS011;4958;48.150;11.506;2023-04-08T14:03:22;8.67;;;7.80;;
9838;SDS011;4958;48.150;11.506;2023-04-08T14:05:51;8.50;;;7.70;;
9838;SDS011;4958;48.150;11.506;2023-04-08T14:08:20;8.80;;;8.00;;
9838;SDS011;4958;48.150;11.506;2023-04-08T14:10:49;9.27;;;8.47;;
9838;SDS011;4958;48.150;11.506;2023-04-08T14:13:15;8.50;;;7.70;;
9838;SDS011;4958;48.150;11.506;2023-04-08T14:15:46;9.10;;;8.27;;
9838;SDS011;4958;48.150;11.506;2023-04-08T14:18:14;8.60;;;7.83;;
9838;SDS011;4958;48.150;11.506;2023-04-08T14:20:44;8.73;;;7.87;;
9838;SDS011;4958;48.150;11.506;2023-04-08T14:23:12;8.87;;;7.97;;
9838;SDS011;4958;48.150;11.506;2023-04-08T14:25:38;9.90;;;8.90;;
9838;SDS011;4958;48.150;11.506;2023-04-08T14:28:07;10.60;;;9.60;;
9838;SDS011;4958;48.150;11.506;2023-04-08T14:30:37;12.03;;;10.73;;
9838;SDS011;4958;48.150;11.506;2023-04-08T14:33:03;15.93;;;13.27;;
9838;SDS011;4958;48.150;11.506;2023-04-08T14:35:30;13.27;;;11.67;;
9838;SDS011;4958;48.150;11.506;2023-04-08T14:37:56;10.60;;;9.33;;
9838;SDS011;4958;48.150;11.506;2023-04-08T14:40:24;10.87;;;9.67;;
9838;SDS011;4958;48.150;11.506;2023-04-08T14:42:50;10.17;;;9.13;;
9838;SDS011;4958;48.150;11.506;2023-04-08T14:45:20;10.60;;;9.50;;
9838;SDS011;4958;48.150;11.506;2023-04-08T14:47:47;8.73;;;7.93;;
9838;SDS011;4958;48.150;11.506;2023-04-08T14:50:14;9.43;;;8.53;;
9838;SDS011;4958;48.150;11.506;2023-04-08T14:52:43;10.70;;;9.60;;
9838;SDS011;4958;48.150;11.506;2023-04-08T14:55:12;9.90;;;8.90;;
9838;SDS011;4958;48.150;11.506;2023-04-08T14:57:40;8.63;;;7.83;;
9838;SDS011;4958;48.150;11.506;2023-04-08T15:00:07;8.13;;;7.33;;
9838;SDS011;4958;48.150;11.506;2023-04-08T15:02:34;8.30;;;7.50;;
9838;SDS011;4958;48.150;11.506;2023-04-08T15:05:00;8.47;;;7.67;;
9838;SDS011;4958;48.150;11.506;2023-04-08T15:07:27;8.40;;;7.63;;
9838;SDS011;4958;48.150;11.506;2023-04-08T15:09:53;8.67;;;7.87;;
9838;SDS011;4958;48.150;11.506;2023-04-08T15:12:20;8.53;;;7.77;;